Time;durP1;ratioP1;P1;durP2;ratioP2;P2;SDS_P1;SDS_P2;PMS_P1;PMS_P2;Temp;Humidity;BMP_temperature;BMP_pressure;BME280_temperature;BME280_humidity;BME280_pressure;Samples;Min_cycle;Max_cycle;Signal;HPM_P1;HPM_P2
2021/07/24 00:01:18;;;;;;;7.37;5.40;;;23.40;66.10;;;;;;1837451;76;21034;-51
2021/07/24 00:03:48;;;;;;;7.35;5.70;;;23.40;65.80;;;;;;1837479;76;21046;-48
2021/07/24 00:06:17;;;;;;;6.53;5.25;;;23.40;66.30;;;;;;1837459;76;21038;-51
2021/07/24 00:08:47;;;;;;;8.85;5.78;;;23.30;66.50;;;;;;1837388;77;21084;-50
2021/07/24 00:11:16;;;;;;;7.37;5.85;;;23.30;66.70;;;;;;1837498;78;21117;-51
2021/07/24 00:13:46;;;;;;;5.67;5.08;;;23.30;66.80;;;;;;1837362;77;21064;-51
2021/07/24 00:16:15;;;;;;;5.87;5.37;;;23.30;66.80;;;;;;1837456;76;21034;-52
2021/07/24 00:18:45;;;;;;;6.53;5.40;;;23.30;67.00;;;;;;1837516;76;21100;-51
2021/07/24 00:21:15;;;;;;;6.35;5.58;;;23.30;67.00;;;;;;1837575;77;21076;-51
2021/07/24 00:23:44;;;;;;;6.10;5.12;;;23.20;67.00;;;;;;1837412;77;21073;-51
2021/07/24 00:26:15;;;;;;;6.45;5.50;;;23.20;67.00;;;;;;1840622;76;21093;-51
2021/07/24 00:28:44;;;;;;;6.85;5.22;;;23.20;66.80;;;;;;1849185;76;21147;-51
2021/07/24 00:31:14;;;;;;;7.78;5.83;;;23.10;67.10;;;;;;1849196;77;21049;-51
2021/07/24 00:33:44;;;;;;;6.17;5.53;;;23.10;67.00;;;;;;1848958;77;21082;-51
2021/07/24 00:36:15;;;;;;;6.75;5.97;;;23.00;67.00;;;;;;1849208;77;21080;-51
2021/07/24 00:38:45;;;;;;;6.78;6.03;;;22.90;67.20;;;;;;1849238;76;21144;-50
2021/07/24 00:41:19;;;;;;;9.03;6.33;;;22.80;66.90;;;;;;1849142;77;21052;-51
2021/07/24 00:43:51;;;;;;;6.95;6.05;;;22.60;66.80;;;;;;1848158;77;21041;-51
2021/07/24 00:46:24;;;;;;;6.05;5.25;;;22.40;67.50;;;;;;1849204;76;21021;-50
2021/07/24 00:48:54;;;;;;;7.00;5.62;;;22.30;68.40;;;;;;1849128;76;21029;-51
2021/07/24 00:51:28;;;;;;;5.72;5.10;;;22.40;68.80;;;;;;1847952;77;21070;-51
2021/07/24 00:54:01;;;;;;;5.55;5.00;;;22.50;68.70;;;;;;1849210;76;21093;-51
2021/07/24 00:56:31;;;;;;;8.33;5.42;;;22.50;68.20;;;;;;1849283;77;21034;-50
2021/07/24 00:59:00;;;;;;;6.85;6.08;;;22.60;68.10;;;;;;1849158;77;21030;-52
2021/07/24 01:01:31;;;;;;;6.47;5.35;;;22.70;68.20;;;;;;1849227;76;21026;-51
2021/07/24 01:04:00;;;;;;;5.70;5.10;;;22.70;68.20;;;;;;1849138;76;21026;-51
2021/07/24 01:06:32;;;;;;;7.53;5.47;;;22.70;68.40;;;;;;1849212;77;21034;-52
2021/07/24 01:09:01;;;;;;;8.05;5.78;;;22.70;67.90;;;;;;1849132;76;21026;-50
2021/07/24 01:11:31;;;;;;;8.75;6.65;;;22.60;68.70;;;;;;1849101;76;21424;-51
2021/07/24 01:14:01;;;;;;;6.03;5.42;;;22.60;68.30;;;;;;1849118;76;21046;-51
2021/07/24 01:16:31;;;;;;;6.97;5.17;;;22.60;68.10;;;;;;1849233;76;21037;-51
2021/07/24 01:19:02;;;;;;;7.65;5.60;;;22.60;68.20;;;;;;1846799;76;21128;-48
2021/07/24 01:21:33;;;;;;;5.83;4.65;;;22.60;68.60;;;;;;1847581;76;21127;-51
2021/07/24 01:24:03;;;;;;;7.58;5.30;;;22.60;68.40;;;;;;1849229;76;21456;-51
2021/07/24 01:26:35;;;;;;;5.65;5.10;;;22.60;68.20;;;;;;1849080;76;21065;-49
2021/07/24 01:29:08;;;;;;;7.30;5.12;;;22.70;68.40;;;;;;1849282;77;21090;-52
2021/07/24 01:31:38;;;;;;;5.85;5.35;;;22.70;68.30;;;;;;1849286;77;21565;-51
2021/07/24 01:34:09;;;;;;;5.72;5.15;;;22.70;68.50;;;;;;1849246;77;21029;-51
2021/07/24 01:36:38;;;;;;;6.33;5.28;;;22.60;68.70;;;;;;1849146;76;21037;-51
2021/07/24 01:39:10;;;;;;;6.42;5.53;;;22.60;68.90;;;;;;1849124;76;21046;-50
2021/07/24 01:41:45;;;;;;;6.67;5.30;;;22.60;69.00;;;;;;1849259;76;21022;-51
2021/07/24 01:44:15;;;;;;;8.10;5.40;;;22.50;68.40;;;;;;1848813;77;21058;-50
2021/07/24 01:46:45;;;;;;;6.12;5.03;;;22.50;68.80;;;;;;1849272;77;21337;-51
2021/07/24 01:54:59;;;;;;;10.60;5.22;;;22.50;68.90;;;;;;1849254;77;21108;-51
2021/07/24 01:57:31;;;;;;;7.30;5.47;;;22.50;68.60;;;;;;1849160;76;21119;-51
2021/07/24 02:00:10;;;;;;;13.68;5.97;;;22.50;68.80;;;;;;1849227;77;22046;-51
2021/07/24 02:02:54;;;;;;;8.00;6.08;;;22.50;68.80;;;;;;1849327;76;21459;-50
2021/07/24 02:05:36;;;;;;;12.03;5.65;;;22.50;69.10;;;;;;1844965;76;21101;-52
2021/07/24 02:08:08;;;;;;;8.75;6.17;;;22.50;69.10;;;;;;1849135;77;21045;-51
2021/07/24 02:10:42;;;;;;;5.58;5.00;;;22.50;69.20;;;;;;1848973;77;21139;-51
2021/07/24 02:13:12;;;;;;;8.83;5.90;;;22.50;69.20;;;;;;1849287;76;21021;-51
2021/07/24 02:15:42;;;;;;;7.55;5.45;;;22.50;69.00;;;;;;1849191;77;21115;-52
2021/07/24 02:18:15;;;;;;;7.00;5.35;;;22.50;69.00;;;;;;1849182;77;21116;-51
2021/07/24 02:20:48;;;;;;;9.23;5.70;;;22.50;69.30;;;;;;1849169;77;21617;-51
2021/07/24 02:23:19;;;;;;;9.63;5.92;;;22.50;69.20;;;;;;1849434;76;21088;-51
2021/07/24 02:25:49;;;;;;;7.53;5.45;;;22.50;69.40;;;;;;1849152;77;21092;-51
2021/07/24 02:28:19;;;;;;;8.00;5.75;;;22.50;69.50;;;;;;1841254;76;21135;-51
2021/07/24 02:30:49;;;;;;;8.38;6.37;;;22.50;69.40;;;;;;1837320;78;21068;-51
2021/07/24 02:33:19;;;;;;;5.85;5.15;;;22.50;69.40;;;;;;1837275;76;21033;-51
2021/07/24 02:35:49;;;;;;;6.78;5.75;;;22.50;69.40;;;;;;1837476;78;21124;-50
2021/07/24 02:38:21;;;;;;;7.30;5.72;;;22.40;69.30;;;;;;1835561;78;21034;-51
2021/07/24 02:40:51;;;;;;;10.30;6.28;;;22.40;69.40;;;;;;1837396;77;21088;-51
2021/07/24 02:43:20;;;;;;;8.73;5.83;;;22.50;69.40;;;;;;1837297;76;21030;-51
2021/07/24 02:45:50;;;;;;;6.33;5.28;;;22.60;69.10;;;;;;1837253;76;21054;-51
2021/07/24 02:48:19;;;;;;;8.40;6.00;;;22.70;68.90;;;;;;1837329;78;21104;-51
2021/07/24 02:50:54;;;;;;;9.13;5.47;;;22.80;68.50;;;;;;1835939;77;21045;-52
2021/07/24 02:53:24;;;;;;;8.60;5.47;;;22.80;68.60;;;;;;1837248;76;21089;-51
2021/07/24 02:55:54;;;;;;;7.67;5.42;;;22.80;68.70;;;;;;1837325;78;21046;-50
2021/07/24 02:58:25;;;;;;;8.08;5.72;;;22.90;68.80;;;;;;1837308;77;21149;-51
2021/07/24 03:00:54;;;;;;;16.52;6.33;;;22.90;67.90;;;;;;1837343;76;21433;-50
2021/07/24 03:03:24;;;;;;;7.15;5.08;;;22.80;68.20;;;;;;1837241;78;21049;-52
2021/07/24 03:05:53;;;;;;;11.03;5.42;;;22.80;68.60;;;;;;1837276;78;21084;-52
2021/07/24 03:08:23;;;;;;;9.38;5.40;;;22.80;68.80;;;;;;1837358;77;21026;-50
2021/07/24 03:10:52;;;;;;;5.67;5.17;;;22.80;68.60;;;;;;1837218;77;21030;-51
2021/07/24 03:13:22;;;;;;;7.53;5.85;;;22.90;68.70;;;;;;1837263;78;21010;-51
2021/07/24 03:15:51;;;;;;;6.67;5.50;;;23.00;68.60;;;;;;1837297;78;21148;-50
2021/07/24 03:18:22;;;;;;;8.48;6.30;;;23.10;68.60;;;;;;1837386;78;21062;-51
2021/07/24 03:20:51;;;;;;;9.15;5.25;;;23.20;68.40;;;;;;1837513;76;21096;-51
2021/07/24 03:23:20;;;;;;;7.15;5.85;;;23.30;68.80;;;;;;1837455;77;21006;-51
2021/07/24 03:25:50;;;;;;;9.15;6.15;;;23.40;68.10;;;;;;1837392;78;21096;-51
2021/07/24 03:28:19;;;;;;;8.13;5.75;;;23.50;67.90;;;;;;1837430;76;21120;-51
2021/07/24 03:30:49;;;;;;;12.05;5.90;;;23.60;67.60;;;;;;1837368;77;21096;-52
2021/07/24 03:33:19;;;;;;;10.95;6.12;;;23.70;67.30;;;;;;1837348;77;21127;-51
2021/07/24 03:35:48;;;;;;;8.33;6.20;;;23.80;67.00;;;;;;1837458;77;21026;-51
2021/07/24 03:38:19;;;;;;;8.43;5.70;;;23.90;66.70;;;;;;1837420;78;21026;-51
2021/07/24 03:40:49;;;;;;;9.18;6.67;;;24.00;66.30;;;;;;1837516;78;21456;-50
2021/07/24 03:43:18;;;;;;;8.53;5.72;;;24.10;66.50;;;;;;1837471;77;21026;-51
2021/07/24 03:45:47;;;;;;;10.03;5.83;;;24.10;65.50;;;;;;1837388;78;21096;-51
2021/07/24 03:48:17;;;;;;;8.55;6.70;;;24.20;65.30;;;;;;1837450;76;21030;-50
2021/07/24 03:50:46;;;;;;;12.15;7.90;;;24.20;65.40;;;;;;1837453;77;21602;-50
2021/07/24 03:53:16;;;;;;;11.93;9.18;;;24.10;65.70;;;;;;1837369;78;21050;-51
2021/07/24 03:55:45;;;;;;;10.90;6.15;;;24.10;65.60;;;;;;1837387;78;21104;-50
2021/07/24 03:58:15;;;;;;;11.05;5.17;;;24.10;66.00;;;;;;1837471;76;21026;-50
2021/07/24 04:00:46;;;;;;;16.55;5.47;;;24.10;65.80;;;;;;1837650;77;21037;-50
2021/07/24 04:03:17;;;;;;;7.65;5.50;;;24.20;65.60;;;;;;1837364;77;21076;-51
2021/07/24 04:05:46;;;;;;;10.30;5.20;;;24.20;65.40;;;;;;1837346;76;21041;-51
2021/07/24 04:08:15;;;;;;;10.48;5.05;;;24.30;65.20;;;;;;1837475;76;21140;-51
2021/07/24 04:10:45;;;;;;;14.25;6.22;;;24.40;65.00;;;;;;1837344;77;21041;-49
2021/07/24 04:13:15;;;;;;;6.10;4.35;;;24.40;64.80;;;;;;1837420;77;21116;-50
2021/07/24 04:15:44;;;;;;;9.23;4.90;;;24.50;64.80;;;;;;1837302;78;21026;-50
2021/07/24 04:18:14;;;;;;;11.57;4.47;;;24.60;64.30;;;;;;1837339;78;21092;-50
2021/07/24 04:20:43;;;;;;;7.40;4.08;;;24.60;63.90;;;;;;1837334;77;21027;-51
2021/07/24 04:23:13;;;;;;;6.65;4.25;;;24.60;63.10;;;;;;1837350;77;21053;-50
2021/07/24 04:25:42;;;;;;;5.80;4.37;;;24.60;62.60;;;;;;1837326;77;21034;-50
2021/07/24 04:28:11;;;;;;;5.87;4.35;;;24.60;62.60;;;;;;1838698;76;21030;-52
2021/07/24 04:30:40;;;;;;;9.60;5.00;;;24.60;62.50;;;;;;1849155;77;21454;-52
2021/07/24 04:33:10;;;;;;;5.62;4.20;;;24.50;62.10;;;;;;1849043;76;21029;-51
2021/07/24 04:35:47;;;;;;;7.50;4.60;;;24.50;62.00;;;;;;1849121;76;21030;-51
2021/07/24 04:38:17;;;;;;;10.03;5.10;;;24.50;61.90;;;;;;1849094;76;21108;-50
2021/07/24 04:40:47;;;;;;;12.05;5.50;;;24.50;61.90;;;;;;1849176;76;21057;-54
2021/07/24 04:43:16;;;;;;;6.92;4.75;;;24.50;61.80;;;;;;1849121;77;21077;-50
2021/07/24 04:45:46;;;;;;;7.50;4.47;;;24.50;61.90;;;;;;1849118;76;21095;-52
2021/07/24 04:48:15;;;;;;;10.40;5.67;;;24.60;61.90;;;;;;1849230;77;21052;-52
2021/07/24 04:50:47;;;;;;;10.70;5.08;;;24.70;62.00;;;;;;1849114;77;21029;-51
2021/07/24 04:53:18;;;;;;;9.50;5.50;;;24.80;61.30;;;;;;1849217;77;21069;-51
2021/07/24 04:55:48;;;;;;;10.15;4.67;;;24.80;61.40;;;;;;1849304;76;21103;-51
2021/07/24 04:58:18;;;;;;;8.80;5.15;;;24.90;61.40;;;;;;1849105;76;21065;-52
2021/07/24 05:00:48;;;;;;;8.13;4.72;;;24.90;61.30;;;;;;1849052;76;21092;-52
2021/07/24 05:03:18;;;;;;;10.82;4.90;;;24.90;61.00;;;;;;1849051;76;21134;-51
2021/07/24 05:05:49;;;;;;;8.08;4.30;;;24.90;60.80;;;;;;1849077;77;21042;-51
2021/07/24 05:08:18;;;;;;;7.75;4.65;;;25.00;61.10;;;;;;1849127;76;21038;-51
2021/07/24 05:10:48;;;;;;;8.33;5.22;;;25.10;60.40;;;;;;1849123;76;21010;-51
2021/07/24 05:13:17;;;;;;;8.40;4.62;;;25.10;60.40;;;;;;1849075;76;21033;-51
2021/07/24 05:15:47;;;;;;;10.53;4.67;;;25.20;60.20;;;;;;1849067;76;21151;-51
2021/07/24 05:18:16;;;;;;;4.95;4.45;;;25.20;60.30;;;;;;1849141;76;21010;-51
2021/07/24 05:20:45;;;;;;;7.50;4.60;;;25.30;60.30;;;;;;1849170;77;21034;-52
2021/07/24 05:23:14;;;;;;;10.95;6.58;;;25.40;60.30;;;;;;1849022;77;21120;-48
2021/07/24 05:25:44;;;;;;;10.63;6.55;;;25.40;59.80;;;;;;1849106;76;21058;-51
2021/07/24 05:28:13;;;;;;;9.83;5.80;;;25.50;59.90;;;;;;1849123;76;21022;-51
2021/07/24 05:30:43;;;;;;;15.13;6.30;;;25.60;60.00;;;;;;1849005;77;21050;-51
2021/07/24 05:33:12;;;;;;;20.75;11.45;;;25.60;59.80;;;;;;1849024;77;21096;-51
2021/07/24 05:35:41;;;;;;;22.40;10.48;;;25.70;59.60;;;;;;1884743;76;21121;-49
2021/07/24 05:38:11;;;;;;;73.52;46.75;;;25.70;59.50;;;;;;1884853;76;21038;-51
2021/07/24 05:40:40;;;;;;;15.25;8.98;;;25.90;59.40;;;;;;1884759;75;21007;-50
2021/07/24 05:43:10;;;;;;;14.68;9.03;;;26.00;59.50;;;;;;1884727;76;21023;-51
2021/07/24 05:45:39;;;;;;;17.32;7.58;;;26.10;59.10;;;;;;1884668;76;21003;-50
2021/07/24 05:48:09;;;;;;;18.02;8.73;;;26.30;58.70;;;;;;1884646;76;21096;-50
2021/07/24 05:50:38;;;;;;;12.65;7.58;;;26.40;58.20;;;;;;1884734;76;21030;-50
2021/07/24 05:53:08;;;;;;;11.75;6.78;;;26.60;58.00;;;;;;1884708;76;21026;-50
2021/07/24 05:55:38;;;;;;;7.10;4.85;;;26.70;57.50;;;;;;1884758;76;21002;-51
2021/07/24 05:58:11;;;;;;;10.08;5.90;;;26.80;56.60;;;;;;1884829;76;21066;-51
2021/07/24 06:00:40;;;;;;;9.53;6.42;;;26.80;56.80;;;;;;1884781;76;21031;-51
2021/07/24 06:03:10;;;;;;;8.75;5.33;;;26.80;56.20;;;;;;1884637;76;21023;-51
2021/07/24 06:05:39;;;;;;;12.25;5.42;;;26.70;55.10;;;;;;1884725;76;21050;-51
2021/07/24 06:08:09;;;;;;;9.15;6.08;;;26.80;54.90;;;;;;1884615;76;21085;-51
2021/07/24 06:10:38;;;;;;;12.45;5.95;;;26.80;55.30;;;;;;1884659;76;21044;-50
2021/07/24 06:13:07;;;;;;;10.43;4.75;;;26.90;54.70;;;;;;1884671;76;21038;-52
2021/07/24 06:15:44;;;;;;;8.08;4.83;;;27.00;53.90;;;;;;1884827;75;21132;-52
2021/07/24 06:18:13;;;;;;;9.48;6.60;;;27.00;53.30;;;;;;1884675;75;20994;-52
2021/07/24 06:20:43;;;;;;;9.93;5.15;;;27.10;53.60;;;;;;1884789;76;21096;-51
2021/07/24 06:23:12;;;;;;;5.85;4.20;;;27.30;53.10;;;;;;1884805;75;21457;-51
2021/07/24 06:25:41;;;;;;;12.80;5.33;;;27.40;51.90;;;;;;1884751;76;21026;-51
2021/07/24 06:28:11;;;;;;;9.98;5.72;;;27.40;51.70;;;;;;1884675;76;21035;-51
2021/07/24 06:30:41;;;;;;;9.68;5.42;;;27.40;51.40;;;;;;1890782;76;21054;-51
2021/07/24 06:33:11;;;;;;;10.88;6.12;;;27.40;52.00;;;;;;1893978;76;21003;-51
2021/07/24 06:35:40;;;;;;;7.97;5.10;;;27.40;51.90;;;;;;1893984;75;21030;-51
2021/07/24 06:38:09;;;;;;;9.20;5.58;;;27.50;51.20;;;;;;1894044;76;20999;-51
2021/07/24 06:40:38;;;;;;;7.35;5.30;;;27.60;51.40;;;;;;1893998;75;21042;-51
2021/07/24 06:43:08;;;;;;;6.30;4.70;;;27.70;51.90;;;;;;1893884;76;21030;-51
2021/07/24 06:45:37;;;;;;;8.20;4.75;;;27.80;51.80;;;;;;1893913;76;21018;-49
2021/07/24 06:48:07;;;;;;;8.83;4.10;;;28.00;51.60;;;;;;1893883;76;21131;-51
2021/07/24 06:50:36;;;;;;;7.12;4.03;;;28.10;50.90;;;;;;1893999;76;21022;-51
2021/07/24 06:53:06;;;;;;;7.00;5.10;;;28.20;50.90;;;;;;1894031;74;21014;-51
2021/07/24 06:55:35;;;;;;;7.80;4.05;;;28.20;51.10;;;;;;1894151;76;21104;-52
2021/07/24 06:58:05;;;;;;;5.55;3.90;;;28.30;49.70;;;;;;1894130;76;21084;-51
2021/07/24 07:00:35;;;;;;;6.60;4.28;;;28.30;49.20;;;;;;1894189;74;21417;-51
2021/07/24 07:03:04;;;;;;;7.17;4.37;;;28.40;48.60;;;;;;1894129;74;21006;-50
2021/07/24 07:05:33;;;;;;;4.22;3.83;;;28.40;48.80;;;;;;1894144;76;21022;-51
2021/07/24 07:08:03;;;;;;;5.80;3.60;;;28.50;48.10;;;;;;1894128;74;21092;-51
2021/07/24 07:10:32;;;;;;;8.05;3.65;;;28.60;47.80;;;;;;1894057;74;21084;-52
2021/07/24 07:13:02;;;;;;;5.20;3.40;;;28.60;47.40;;;;;;1894100;75;21026;-52
2021/07/24 07:15:31;;;;;;;5.50;3.70;;;28.60;47.10;;;;;;1894132;76;21092;-51
2021/07/24 07:18:01;;;;;;;5.28;3.55;;;28.70;46.90;;;;;;1894178;76;21014;-51
2021/07/24 07:20:30;;;;;;;5.72;3.30;;;28.70;47.10;;;;;;1894102;75;21078;-52
2021/07/24 07:23:00;;;;;;;5.55;3.55;;;28.70;46.30;;;;;;1894046;75;21061;-51
2021/07/24 07:25:31;;;;;;;4.35;2.85;;;28.70;46.30;;;;;;1894191;76;21569;-51
2021/07/24 07:28:00;;;;;;;8.70;3.72;;;28.80;46.50;;;;;;1894048;76;21120;-52
2021/07/24 07:30:29;;;;;;;11.48;4.17;;;28.80;46.70;;;;;;1887422;75;21126;-51
2021/07/24 07:32:59;;;;;;;4.17;3.20;;;28.80;46.70;;;;;;1872459;77;21145;-51
2021/07/24 07:35:29;;;;;;;7.33;3.75;;;28.90;47.20;;;;;;1872537;77;21003;-52
2021/07/24 07:37:59;;;;;;;5.58;3.30;;;28.90;46.40;;;;;;1872612;75;21067;-51
2021/07/24 07:40:29;;;;;;;5.35;3.50;;;28.90;47.10;;;;;;1872696;75;21414;-51
2021/07/24 07:42:59;;;;;;;8.78;4.20;;;29.00;47.30;;;;;;1872580;76;21026;-51
2021/07/24 07:45:28;;;;;;;6.62;4.55;;;29.00;46.70;;;;;;1872502;75;21070;-52
2021/07/24 07:47:58;;;;;;;9.30;5.03;;;29.10;45.90;;;;;;1872363;77;21074;-51
2021/07/24 07:50:27;;;;;;;5.67;3.77;;;29.10;46.30;;;;;;1872470;77;21031;-52
2021/07/24 07:52:57;;;;;;;9.63;4.15;;;29.20;46.10;;;;;;1872546;77;21027;-52
2021/07/24 07:55:26;;;;;;;7.72;4.00;;;29.20;45.60;;;;;;1872830;77;21023;-52
2021/07/24 07:57:56;;;;;;;6.58;3.87;;;29.20;45.90;;;;;;1872662;76;21027;-50
2021/07/24 08:00:26;;;;;;;5.33;4.05;;;29.20;46.30;;;;;;1872620;77;21195;-50
2021/07/24 08:02:56;;;;;;;6.00;3.67;;;29.30;46.80;;;;;;1872740;75;21027;-51
2021/07/24 08:05:25;;;;;;;9.28;3.20;;;29.50;46.90;;;;;;1872653;77;21035;-52
2021/07/24 08:07:55;;;;;;;7.00;3.62;;;29.60;46.50;;;;;;1872610;77;21081;-51
2021/07/24 08:10:24;;;;;;;7.42;3.75;;;29.60;46.80;;;;;;1872720;77;21011;-52
2021/07/24 08:12:53;;;;;;;6.08;3.67;;;29.70;46.80;;;;;;1872497;77;21031;-51
2021/07/24 08:15:23;;;;;;;6.58;3.45;;;29.70;46.20;;;;;;1872650;77;21043;-51
2021/07/24 08:17:54;;;;;;;3.87;3.15;;;29.70;45.20;;;;;;1872636;77;21031;-52
2021/07/24 08:20:23;;;;;;;4.22;3.00;;;29.70;44.70;;;;;;1872735;75;21019;-51
2021/07/24 08:22:53;;;;;;;6.42;3.90;;;29.60;44.60;;;;;;1872631;77;21031;-52
2021/07/24 08:25:22;;;;;;;10.08;3.40;;;29.60;45.00;;;;;;1872471;77;21031;-52
2021/07/24 08:27:53;;;;;;;7.20;3.20;;;29.60;45.00;;;;;;1872352;77;21043;-52
2021/07/24 08:30:22;;;;;;;5.33;3.80;;;29.70;44.30;;;;;;1872425;77;21011;-51
2021/07/24 08:32:51;;;;;;;9.58;4.00;;;29.70;43.80;;;;;;1872470;77;21027;-51
2021/07/24 08:35:21;;;;;;;12.05;7.67;;;29.70;43.80;;;;;;1872483;76;21092;-51
2021/07/24 08:37:51;;;;;;;7.80;3.80;;;29.80;43.90;;;;;;1872343;75;21031;-51
2021/07/24 08:40:21;;;;;;;5.08;3.42;;;29.80;43.90;;;;;;1872403;75;21081;-52
2021/07/24 08:42:50;;;;;;;5.25;2.95;;;29.90;43.30;;;;;;1872479;77;21027;-52
2021/07/24 08:45:19;;;;;;;5.58;3.12;;;29.90;41.70;;;;;;1872554;76;21031;-51
2021/07/24 08:47:49;;;;;;;5.65;2.87;;;29.90;41.30;;;;;;1872410;75;21074;-52
2021/07/24 08:50:18;;;;;;;8.15;3.85;;;30.00;41.10;;;;;;1872527;77;21062;-51
2021/07/24 08:52:50;;;;;;;7.53;5.37;;;30.10;41.50;;;;;;1872548;76;21027;-51
2021/07/24 08:55:24;;;;;;;31.20;28.27;;;30.20;41.40;;;;;;1872592;76;21149;-50
2021/07/24 08:57:55;;;;;;;29.05;22.25;;;30.20;40.50;;;;;;1872785;77;21133;-51
2021/07/24 09:00:26;;;;;;;11.78;7.83;;;30.20;41.00;;;;;;1872513;76;21031;-52
2021/07/24 09:03:00;;;;;;;30.92;28.02;;;30.30;40.70;;;;;;1872545;76;21043;-51
2021/07/24 09:05:32;;;;;;;4.50;3.45;;;30.30;39.60;;;;;;1872544;77;21109;-51
2021/07/24 09:08:03;;;;;;;6.03;3.98;;;30.20;39.70;;;;;;1872185;75;21007;-52
2021/07/24 09:10:33;;;;;;;7.35;4.33;;;30.20;40.40;;;;;;1872502;77;21051;-52
2021/07/24 09:13:02;;;;;;;4.62;2.75;;;30.20;40.20;;;;;;1872490;77;21031;-51
2021/07/24 09:15:33;;;;;;;4.53;2.95;;;30.10;39.80;;;;;;1872456;77;21066;-52
2021/07/24 09:18:02;;;;;;;6.37;4.05;;;30.00;39.40;;;;;;1872551;75;21101;-52
2021/07/24 09:20:32;;;;;;;3.92;3.37;;;30.00;38.00;;;;;;1872586;75;21080;-53
2021/07/24 09:23:06;;;;;;;4.53;2.95;;;30.10;37.40;;;;;;1872709;77;21102;-52
2021/07/24 09:25:38;;;;;;;5.85;3.05;;;30.20;36.90;;;;;;1869194;75;21149;-52
2021/07/24 09:28:11;;;;;;;6.12;2.92;;;30.20;37.00;;;;;;1871980;76;21007;-51
2021/07/24 09:30:41;;;;;;;5.55;2.80;;;30.30;36.50;;;;;;1872658;75;21567;-52
2021/07/24 09:33:11;;;;;;;7.20;2.83;;;30.40;36.00;;;;;;1891590;75;21100;-52
2021/07/24 09:35:49;;;;;;;2.40;2.12;;;30.40;36.60;;;;;;1894004;76;21022;-52
2021/07/24 09:38:33;;;;;;;4.58;3.10;;;30.40;37.00;;;;;;1893953;76;21104;-52
2021/07/24 09:41:03;;;;;;;4.05;3.52;;;30.60;36.60;;;;;;1893943;75;21111;-51
2021/07/24 09:43:39;;;;;;;3.20;2.90;;;30.60;36.20;;;;;;1893920;76;21026;-51
2021/07/24 09:46:22;;;;;;;6.78;3.47;;;30.70;35.80;;;;;;1893972;76;21078;-52
2021/07/24 09:48:54;;;;;;;4.33;3.15;;;30.80;36.30;;;;;;1894321;75;21085;-52
2021/07/24 09:51:40;;;;;;;5.80;3.20;;;30.90;36.40;;;;;;1893973;76;21022;-52
2021/07/24 09:54:26;;;;;;;6.22;3.47;;;31.00;36.90;;;;;;1894032;74;21006;-51
2021/07/24 09:56:56;;;;;;;4.28;2.72;;;31.20;36.60;;;;;;1894003;74;21108;-52
2021/07/24 09:59:30;;;;;;;7.90;3.08;;;31.30;36.50;;;;;;1893947;76;21030;-51
2021/07/24 10:02:01;;;;;;;4.17;3.08;;;31.20;36.50;;;;;;1894217;76;21100;-52
2021/07/24 10:04:41;;;;;;;12.90;3.40;;;31.30;36.40;;;;;;1894045;76;21054;-52
2021/07/24 10:07:11;;;;;;;4.35;3.50;;;31.40;36.80;;;;;;1894020;76;21026;-51
2021/07/24 10:09:42;;;;;;;8.63;3.45;;;31.30;36.80;;;;;;1894144;76;21046;-52
2021/07/24 10:12:16;;;;;;;5.17;3.27;;;31.30;37.20;;;;;;1893249;75;21030;-52
2021/07/24 10:14:45;;;;;;;3.75;3.05;;;31.30;37.30;;;;;;1894212;75;21464;-53
2021/07/24 10:17:15;;;;;;;4.90;3.05;;;31.30;37.30;;;;;;1893989;75;21153;-52
2021/07/24 10:19:46;;;;;;;8.53;3.05;;;31.30;36.80;;;;;;1894024;76;21046;-51
2021/07/24 10:22:16;;;;;;;4.15;3.55;;;31.20;36.70;;;;;;1893940;76;21030;-51
2021/07/24 10:24:45;;;;;;;7.28;2.87;;;31.10;36.70;;;;;;1893989;74;21080;-52
2021/07/24 10:27:18;;;;;;;4.62;2.77;;;31.10;36.60;;;;;;1894062;76;21002;-51
2021/07/24 10:30:01;;;;;;;12.45;3.22;;;31.10;36.40;;;;;;1893084;75;21084;-51
2021/07/24 10:32:38;;;;;;;3.60;3.02;;;31.00;36.60;;;;;;1885838;76;21027;-52
2021/07/24 10:35:08;;;;;;;6.28;3.12;;;30.90;36.40;;;;;;1872536;77;21019;-52
2021/07/24 10:37:42;;;;;;;25.02;13.20;;;30.80;36.60;;;;;;1872564;76;21027;-52
2021/07/24 10:40:22;;;;;;;4.60;2.77;;;30.70;37.20;;;;;;1872714;76;21047;-52
2021/07/24 10:42:53;;;;;;;4.55;2.67;;;30.70;37.10;;;;;;1872718;77;21480;-52
2021/07/24 10:45:37;;;;;;;5.60;2.58;;;30.70;37.00;;;;;;1872532;77;21097;-52
2021/07/24 10:48:24;;;;;;;4.67;2.70;;;30.80;36.70;;;;;;1872816;77;21015;-52
2021/07/24 10:50:55;;;;;;;3.58;2.62;;;30.90;36.90;;;;;;1871031;76;21086;-52
2021/07/24 10:53:28;;;;;;;3.52;3.02;;;31.00;36.30;;;;;;1872630;76;21465;-52
2021/07/24 10:55:59;;;;;;;4.27;2.70;;;30.90;36.10;;;;;;1870706;77;21550;-51
2021/07/24 10:58:29;;;;;;;6.35;3.58;;;30.80;36.30;;;;;;1872624;77;21003;-52
2021/07/24 11:00:59;;;;;;;5.55;3.20;;;30.70;36.00;;;;;;1872549;77;21524;-52
2021/07/24 11:03:39;;;;;;;3.27;2.55;;;30.70;36.40;;;;;;1872472;77;21066;-53
2021/07/24 11:06:28;;;;;;;5.60;2.90;;;30.60;36.00;;;;;;1872419;75;21078;-52
2021/07/24 11:09:09;;;;;;;6.92;3.22;;;30.70;36.50;;;;;;1872535;77;21020;-51
2021/07/24 11:11:43;;;;;;;6.97;3.65;;;30.70;35.90;;;;;;1872647;77;21090;-53
2021/07/24 11:14:44;;;;;;;3.62;2.80;;;30.70;36.00;;;;;;1872800;77;21480;-52
2021/07/24 11:17:16;;;;;;;5.35;2.58;;;30.60;35.80;;;;;;1872688;75;21081;-52
2021/07/24 11:19:54;;;;;;;4.55;2.35;;;30.60;36.30;;;;;;1872709;77;21019;-51
2021/07/24 11:22:25;;;;;;;7.50;2.72;;;30.70;36.20;;;;;;1871544;75;21085;-51
2021/07/24 11:24:57;;;;;;;9.95;2.58;;;30.90;36.40;;;;;;1872643;77;21073;-52
2021/07/24 11:27:31;;;;;;;5.75;3.20;;;31.00;35.50;;;;;;1872678;77;21043;-52
2021/07/24 11:30:09;;;;;;;3.40;2.60;;;31.10;35.70;;;;;;1872719;77;21069;-53
2021/07/24 11:32:39;;;;;;;3.65;2.83;;;31.10;35.80;;;;;;1877014;76;21112;-51
2021/07/24 11:35:13;;;;;;;5.25;3.00;;;31.10;35.90;;;;;;1894101;76;21062;-52
2021/07/24 11:37:52;;;;;;;5.10;2.55;;;31.10;35.80;;;;;;1894035;75;21018;-52
2021/07/24 11:40:26;;;;;;;3.33;3.02;;;31.10;35.60;;;;;;1894095;76;21088;-52
2021/07/24 11:43:02;;;;;;;7.28;3.00;;;31.10;35.40;;;;;;1893399;74;21061;-52
2021/07/24 11:45:32;;;;;;;5.90;3.80;;;31.20;35.50;;;;;;1894162;76;21042;-52
2021/07/24 11:48:13;;;;;;;3.62;2.58;;;31.30;35.30;;;;;;1894099;76;21029;-52
2021/07/24 11:50:44;;;;;;;5.62;2.80;;;31.40;35.20;;;;;;1894234;75;21018;-52
2021/07/24 11:53:13;;;;;;;4.72;3.83;;;31.50;35.30;;;;;;1894152;75;21092;-52
2021/07/24 11:55:43;;;;;;;5.90;3.20;;;31.50;35.20;;;;;;1893996;74;21006;-52
2021/07/24 11:58:13;;;;;;;6.92;3.92;;;31.50;34.70;;;;;;1894071;76;21026;-52
2021/07/24 12:00:46;;;;;;;5.08;2.72;;;31.50;34.90;;;;;;1893976;76;21088;-52
2021/07/24 12:03:17;;;;;;;9.33;2.87;;;31.40;34.60;;;;;;1894191;76;21112;-52
2021/07/24 12:05:48;;;;;;;3.33;2.70;;;31.40;34.50;;;;;;1894050;75;21092;-53
2021/07/24 12:08:20;;;;;;;5.87;2.90;;;31.40;34.50;;;;;;1894028;75;21099;-52
2021/07/24 12:10:51;;;;;;;6.28;3.65;;;31.40;35.70;;;;;;1894097;76;21029;-53
2021/07/24 12:13:25;;;;;;;6.20;4.70;;;31.30;34.80;;;;;;1894019;76;21109;-52
2021/07/24 12:16:08;;;;;;;10.13;5.08;;;31.20;34.70;;;;;;1894340;74;21026;-52
2021/07/24 12:18:53;;;;;;;8.53;3.02;;;31.20;34.90;;;;;;1894005;76;21034;-53
2021/07/24 12:21:25;;;;;;;5.87;3.52;;;31.20;35.30;;;;;;1894017;76;21046;-53
2021/07/24 12:24:03;;;;;;;7.05;4.17;;;31.20;35.20;;;;;;1891183;75;21054;-53
2021/07/24 12:26:37;;;;;;;3.80;3.30;;;31.20;35.30;;;;;;1894039;76;21026;-53
2021/07/24 12:29:15;;;;;;;3.62;3.12;;;31.10;35.60;;;;;;1894036;76;21026;-53
2021/07/24 12:31:47;;;;;;;5.85;2.80;;;31.10;35.80;;;;;;1894037;76;21026;-53
2021/07/24 12:34:24;;;;;;;3.87;3.12;;;31.10;35.80;;;;;;1880157;76;21051;-53
2021/07/24 12:36:58;;;;;;;5.42;3.08;;;31.20;35.20;;;;;;1872722;77;21031;-53
2021/07/24 12:39:36;;;;;;;3.15;2.50;;;31.30;34.80;;;;;;1872472;76;21031;-53
2021/07/24 12:42:07;;;;;;;3.67;2.65;;;31.30;35.10;;;;;;1872406;76;21519;-54
2021/07/24 12:44:57;;;;;;;3.83;2.90;;;31.40;34.90;;;;;;1872563;77;21497;-53
2021/07/24 12:47:28;;;;;;;3.58;3.12;;;31.50;34.70;;;;;;1872531;76;21118;-54
2021/07/24 12:49:58;;;;;;;3.92;2.92;;;31.60;34.90;;;;;;1872151;76;21571;-53
2021/07/24 12:52:37;;;;;;;5.87;2.85;;;31.70;34.50;;;;;;1872518;77;21031;-52
2021/07/24 12:55:14;;;;;;;3.92;3.12;;;31.80;34.80;;;;;;1872598;76;21105;-53
2021/07/24 12:57:44;;;;;;;7.33;3.17;;;31.90;34.70;;;;;;1872517;76;21110;-52
2021/07/24 13:00:15;;;;;;;3.75;2.80;;;31.90;35.00;;;;;;1872474;77;21038;-53
2021/07/24 13:02:44;;;;;;;4.80;3.10;;;31.90;34.40;;;;;;1872525;77;21137;-53
2021/07/24 13:05:22;;;;;;;4.03;2.72;;;31.80;34.60;;;;;;1872504;77;21003;-54
2021/07/24 13:07:52;;;;;;;5.35;2.92;;;31.70;34.50;;;;;;1870978;76;21031;-52
2021/07/24 13:10:21;;;;;;;3.33;3.02;;;31.70;34.60;;;;;;1872578;76;21086;-52
2021/07/24 13:12:51;;;;;;;3.75;2.95;;;31.80;34.00;;;;;;1872553;77;21043;-53